Time;durP1;ratioP1;P1;durP2;ratioP2;P2;SDS_P1;SDS_P2;PMS_P1;PMS_P2;Temp;Humidity;BMP_temperature;BMP_pressure;BME280_temperature;BME280_humidity;BME280_pressure;Samples;Min_cycle;Max_cycle;Signal;HPM_P1;HPM_P2
2022/06/20 00:02:14;;;;;;;12.15;3.95;;;;;;;13.17;92.74;101355.94;5052712;28;20120;-74
2022/06/20 00:04:39;;;;;;;13.38;4.13;;;;;;;13.17;92.13;101352.50;5052271;28;20374;-73
2022/06/20 00:07:05;;;;;;;11.48;4.03;;;;;;;13.13;92.13;101341.31;5052600;28;20431;-73
2022/06/20 00:09:30;;;;;;;13.07;4.10;;;;;;;13.12;90.67;101355.19;5052433;28;20024;-80
2022/06/20 00:11:55;;;;;;;14.13;3.75;;;;;;;13.07;90.88;101360.50;5052485;28;20017;-80
2022/06/20 00:14:21;;;;;;;15.40;3.78;;;;;;;13.01;90.94;101358.06;5052318;28;20028;-80
2022/06/20 00:16:47;;;;;;;15.18;3.45;;;;;;;12.98;89.59;101359.88;5052211;28;20029;-80
2022/06/20 00:19:13;;;;;;;11.20;3.50;;;;;;;12.99;91.46;101348.56;5052115;28;20039;-81
2022/06/20 00:21:39;;;;;;;15.68;3.72;;;;;;;12.94;91.47;101343.50;5052623;28;20028;-81
2022/06/20 00:24:06;;;;;;;11.65;3.60;;;;;;;12.91;91.62;101340.97;5052222;28;20082;-80
2022/06/20 00:26:31;;;;;;;17.75;3.72;;;;;;;12.88;90.71;101355.81;5052642;28;20060;-81
2022/06/20 00:28:57;;;;;;;10.82;3.50;;;;;;;12.88;90.53;101358.41;5050763;28;20021;-80
2022/06/20 00:31:23;;;;;;;13.32;3.47;;;;;;;12.87;90.19;101370.56;5051998;28;20475;-80
2022/06/20 00:33:49;;;;;;;13.82;3.45;;;;;;;12.88;92.11;101382.69;5051985;28;20384;-80
2022/06/20 00:36:14;;;;;;;15.25;3.67;;;;;;;12.89;92.08;101401.75;5051926;28;20033;-80
2022/06/20 00:38:42;;;;;;;10.40;3.25;;;;;;;12.91;92.52;101415.56;5051911;28;20036;-73
2022/06/20 00:41:16;;;;;;;8.77;3.50;;;;;;;12.90;93.04;101422.50;5051979;28;20048;-73
2022/06/20 00:43:47;;;;;;;13.73;4.03;;;;;;;12.89;92.75;101410.44;5050754;28;20423;-73
2022/06/20 00:46:35;;;;;;;8.35;3.20;;;;;;;12.91;93.13;101433.78;5051581;28;20364;-73
2022/06/20 00:49:10;;;;;;;8.82;3.42;;;;;;;12.91;93.67;101465.00;5051749;28;20316;-73
2022/06/20 00:52:04;;;;;;;9.90;3.60;;;;;;;12.92;93.79;101483.19;5052122;28;20044;-73
2022/06/20 00:54:46;;;;;;;13.18;3.67;;;;;;;12.96;94.46;101502.22;5059965;28;20059;-73
2022/06/20 00:57:20;;;;;;;11.13;3.67;;;;;;;12.97;94.65;101516.91;5071720;28;20024;-73
2022/06/20 00:59:51;;;;;;;10.45;3.45;;;;;;;12.97;94.78;101541.19;5071591;28;20058;-73
2022/06/20 01:02:25;;;;;;;10.10;3.40;;;;;;;12.98;94.58;101574.13;5070378;28;20034;-73
2022/06/20 01:05:02;;;;;;;12.93;3.80;;;;;;;12.99;94.72;101588.00;5071599;28;20028;-73
2022/06/20 01:07:45;;;;;;;10.20;3.60;;;;;;;12.98;93.66;101573.28;5071501;28;20059;-73
2022/06/20 01:10:12;;;;;;;11.95;3.80;;;;;;;13.02;95.24;101559.31;5070938;28;20025;-80
2022/06/20 01:12:48;;;;;;;15.95;4.10;;;;;;;13.00;94.58;101537.66;5071350;28;20028;-81
2022/06/20 01:15:24;;;;;;;9.32;3.70;;;;;;;13.02;93.60;101520.28;5071005;28;20028;-81
2022/06/20 01:17:51;;;;;;;10.95;3.78;;;;;;;13.03;94.73;101515.03;5061192;28;20487;-80
2022/06/20 01:20:31;;;;;;;12.48;3.67;;;;;;;13.05;94.50;101499.38;5050831;28;20529;-81
2022/06/20 01:23:04;;;;;;;12.43;3.50;;;;;;;13.04;94.40;101495.91;5050739;28;20031;-81
2022/06/20 01:25:33;;;;;;;13.20;3.80;;;;;;;13.03;94.58;101499.41;5050669;28;20376;-81
2022/06/20 01:27:59;;;;;;;10.88;3.80;;;;;;;13.02;94.61;101505.53;5051282;28;20109;-80
2022/06/20 01:30:29;;;;;;;8.82;3.45;;;;;;;12.96;93.72;101497.00;5050810;28;20032;-80
2022/06/20 01:32:57;;;;;;;10.45;3.72;;;;;;;12.94;94.43;101484.03;5051110;28;20021;-80
2022/06/20 01:38:11;;;;;;;10.52;3.83;;;;;;;12.93;94.59;101473.63;5051297;28;20055;-81
2022/06/20 01:40:39;;;;;;;12.15;3.95;;;;;;;12.88;93.55;101454.69;5057545;28;20029;-73
2022/06/20 01:43:04;;;;;;;11.18;3.95;;;;;;;12.90;95.00;101471.09;5071116;28;20020;-73
2022/06/20 01:48:17;;;;;;;12.77;4.33;;;;;;;12.87;94.62;101465.97;5070433;28;20048;-73
2022/06/20 01:50:45;;;;;;;11.20;4.20;;;;;;;12.80;93.57;101448.81;5057206;28;20366;-74
2022/06/20 01:53:15;;;;;;;13.13;4.32;;;;;;;12.82;94.46;101441.81;5050402;28;20025;-73
2022/06/20 01:55:43;;;;;;;13.57;4.60;;;;;;;12.78;94.39;101427.16;5050737;28;20127;-73
2022/06/20 01:58:14;;;;;;;9.27;4.50;;;;;;;12.80;94.70;101428.84;5050509;28;20025;-73
2022/06/20 02:00:40;;;;;;;13.70;5.15;;;;;;;12.80;95.26;101415.84;5049094;28;20051;-73
2022/06/20 02:03:09;;;;;;;10.50;4.60;;;;;;;12.78;94.66;101416.75;5050328;28;20029;-73
2022/06/20 02:05:35;;;;;;;15.15;4.70;;;;;;;12.79;94.87;101408.06;5050388;28;20021;-73
2022/06/20 02:08:04;;;;;;;14.05;4.75;;;;;;;12.78;95.41;101404.59;5050467;28;20029;-73
2022/06/20 02:10:38;;;;;;;17.80;5.03;;;;;;;12.76;94.92;101413.34;5050518;28;20024;-81
2022/06/20 02:13:03;;;;;;;12.52;4.68;;;;;;;12.76;95.04;101406.38;5050015;28;20021;-80
2022/06/20 02:15:32;;;;;;;11.88;5.20;;;;;;;12.76;95.19;101415.97;5050271;28;20032;-80
2022/06/20 02:18:01;;;;;;;14.77;5.20;;;;;;;12.71;93.99;101417.78;5065785;28;20021;-80
2022/06/20 02:20:30;;;;;;;14.38;4.90;;;;;;;12.72;94.74;101406.50;5070061;28;20031;-80
2022/06/20 02:22:57;;;;;;;14.20;4.88;;;;;;;12.71;94.50;101392.63;5069984;28;20538;-80
2022/06/20 02:25:31;;;;;;;11.45;4.65;;;;;;;12.68;93.19;101381.47;5069730;28;20434;-80
2022/06/20 02:28:05;;;;;;;14.20;4.45;;;;;;;12.65;91.98;101374.56;5069813;28;20036;-80
2022/06/20 02:30:31;;;;;;;14.93;4.68;;;;;;;12.61;92.46;101368.59;5070050;28;20028;-80
2022/06/20 02:33:02;;;;;;;12.05;4.47;;;;;;;12.62;92.74;101367.69;5070121;28;20372;-81
2022/06/20 02:35:29;;;;;;;10.95;4.13;;;;;;;12.59;92.59;101359.97;5068204;28;20555;-81
2022/06/20 02:37:54;;;;;;;12.65;4.30;;;;;;;12.58;92.46;101347.00;5069430;28;20029;-80
2022/06/20 02:40:24;;;;;;;17.27;4.90;;;;;;;12.57;92.06;101355.69;5069431;28;20024;-81
2022/06/20 02:42:56;;;;;;;11.27;3.47;;;;;;;12.54;91.70;101359.22;5069718;28;20400;-81
2022/06/20 02:45:22;;;;;;;7.53;3.22;;;;;;;12.57;92.04;101364.34;5054911;28;20025;-81
2022/06/20 02:47:51;;;;;;;15.98;4.00;;;;;;;12.55;92.61;101363.56;5049413;28;20029;-80
2022/06/20 02:50:22;;;;;;;13.65;3.90;;;;;;;12.54;91.59;101360.97;5059548;28;20024;-81
2022/06/20 02:53:02;;;;;;;11.93;4.03;;;;;;;12.51;91.70;101350.63;5069531;28;20123;-81
2022/06/20 02:55:29;;;;;;;8.90;3.92;;;;;;;12.49;91.65;101347.19;5069181;28;20044;-81
2022/06/20 02:57:58;;;;;;;9.05;4.00;;;;;;;12.48;93.22;101335.97;5069450;28;20052;-81
2022/06/20 03:00:42;;;;;;;14.73;4.63;;;;;;;12.49;92.59;101329.84;5069000;28;20083;-81
2022/06/20 03:03:13;;;;;;;13.48;4.47;;;;;;;12.45;93.09;101330.84;5069290;28;20039;-81
2022/06/20 03:05:39;;;;;;;14.18;4.10;;;;;;;12.41;90.84;101323.16;5069017;28;20020;-81
2022/06/20 03:08:05;;;;;;;18.10;4.30;;;;;;;12.35;90.20;101312.91;5069353;28;20047;-81
2022/06/20 03:10:41;;;;;;;10.73;3.95;;;;;;;12.37;92.24;101306.75;5069273;28;20243;-80
2022/06/20 03:13:08;;;;;;;11.45;3.80;;;;;;;12.35;92.37;101315.50;5069490;28;20027;-81
2022/06/20 03:15:36;;;;;;;12.43;4.10;;;;;;;12.37;92.21;101300.69;5069165;28;20428;-81
2022/06/20 03:18:01;;;;;;;13.07;4.10;;;;;;;12.31;90.42;101298.25;5061395;28;20029;-82
2022/06/20 03:20:27;;;;;;;12.77;4.18;;;;;;;12.33;92.48;101292.13;5047451;28;20031;-73
2022/06/20 03:22:59;;;;;;;9.90;3.75;;;;;;;12.35;92.56;101308.53;5049164;28;20021;-73
2022/06/20 03:25:25;;;;;;;9.23;3.80;;;;;;;12.33;92.92;101304.28;5048369;28;20443;-73
2022/06/20 03:27:52;;;;;;;10.68;4.15;;;;;;;12.35;93.55;101316.31;5049147;28;20020;-73
2022/06/20 03:30:30;;;;;;;11.43;3.85;;;;;;;12.37;93.90;101322.34;5048989;28;20025;-73
2022/06/20 03:32:58;;;;;;;11.10;4.10;;;;;;;12.37;93.96;101316.28;5056918;28;20031;-74
2022/06/20 03:35:26;;;;;;;10.27;4.18;;;;;;;12.41;94.43;101336.16;5068636;28;20028;-74
2022/06/20 03:37:52;;;;;;;11.50;3.90;;;;;;;12.39;93.52;101349.19;5069165;28;20066;-74
2022/06/20 03:40:18;;;;;;;11.15;3.90;;;;;;;12.37;91.27;101363.94;5068580;28;20056;-74
2022/06/20 03:42:44;;;;;;;11.15;3.78;;;;;;;12.38;93.45;101355.25;5069042;28;20111;-73
2022/06/20 03:45:14;;;;;;;14.25;3.85;;;;;;;12.37;91.62;101343.16;5068824;28;20110;-73
2022/06/20 03:47:45;;;;;;;8.27;3.58;;;;;;;12.39;91.92;101349.19;5069265;28;20150;-73
2022/06/20 03:50:15;;;;;;;18.40;4.10;;;;;;;12.45;92.99;101355.97;5068634;28;20452;-80
2022/06/20 03:52:51;;;;;;;11.73;3.85;;;;;;;12.44;92.36;101369.88;5068854;28;20094;-80
2022/06/20 03:55:28;;;;;;;10.38;4.28;;;;;;;12.54;93.71;101382.63;5059589;28;20031;-81
2022/06/20 03:58:12;;;;;;;12.10;4.03;;;;;;;12.59;94.10;101393.78;5048754;28;20074;-81
2022/06/20 04:00:55;;;;;;;10.98;4.15;;;;;;;12.63;93.95;101403.22;5048657;28;20049;-81
2022/06/20 04:03:28;;;;;;;10.95;3.90;;;;;;;12.64;92.15;101407.53;5048835;28;20043;-82
2022/06/20 04:06:07;;;;;;;12.43;4.53;;;;;;;12.68;93.79;101400.53;5054721;28;20021;-81
2022/06/20 04:11:33;;;;;;;14.65;4.93;;;;;;;12.81;94.54;101404.53;5069109;28;20074;-81
2022/06/20 04:14:08;;;;;;;8.27;4.50;;;;;;;12.83;94.68;101400.13;5068799;28;20036;-81
2022/06/20 04:16:41;;;;;;;13.38;4.60;;;;;;;12.87;94.57;101409.59;5067146;28;20137;-81
2022/06/20 04:19:25;;;;;;;10.82;4.85;;;;;;;12.90;94.82;101412.09;5048581;28;20028;-81
2022/06/20 04:22:03;;;;;;;13.18;4.63;;;;;;;12.88;91.99;101418.25;5048498;28;20056;-82
2022/06/20 04:24:53;;;;;;;13.32;4.93;;;;;;;12.96;93.65;101419.78;5048504;28;20483;-82
2022/06/20 04:27:41;;;;;;;11.38;4.85;;;;;;;12.97;93.93;101420.63;5055549;28;20493;-82
2022/06/20 04:30:13;;;;;;;10.82;4.72;;;;;;;12.98;94.31;101428.41;5066932;28;20028;-82
2022/06/20 04:33:01;;;;;;;11.20;4.95;;;;;;;13.06;95.03;101426.47;5068586;28;20017;-81
2022/06/20 04:35:34;;;;;;;13.75;4.93;;;;;;;13.05;93.05;101440.38;5068267;28;20399;-82
2022/06/20 04:38:05;;;;;;;10.63;4.63;;;;;;;13.06;93.75;101433.41;5070460;28;20032;-80
2022/06/20 04:40:43;;;;;;;16.00;4.93;;;;;;;13.07;94.50;101436.00;5071735;28;20028;-81
2022/06/20 04:43:21;;;;;;;10.90;4.85;;;;;;;13.14;95.05;101441.94;5071866;28;20543;-82
2022/06/20 04:46:04;;;;;;;13.52;5.00;;;;;;;13.14;95.05;101439.34;5052431;28;20147;-82
2022/06/20 04:48:30;;;;;;;12.85;5.05;;;;;;;13.15;94.22;101433.25;5050606;28;20036;-74
2022/06/20 04:51:00;;;;;;;13.70;4.63;;;;;;;13.19;92.88;101454.81;5051831;28;20029;-74
2022/06/20 04:53:33;;;;;;;14.80;5.13;;;;;;;13.22;95.14;101446.97;5051652;28;20048;-74
2022/06/20 04:56:03;;;;;;;15.27;5.05;;;;;;;13.21;93.74;101456.50;5051686;28;20029;-74
2022/06/20 04:58:51;;;;;;;13.30;5.07;;;;;;;13.28;94.32;101465.03;5051506;28;20029;-74
2022/06/20 05:01:19;;;;;;;13.73;4.90;;;;;;;13.25;91.97;101462.47;5051353;28;20055;-74
2022/06/20 05:03:49;;;;;;;13.27;4.97;;;;;;;13.33;95.08;101464.00;5051491;28;20036;-74
2022/06/20 05:06:20;;;;;;;13.52;5.20;;;;;;;13.37;95.02;101464.81;5051282;28;20040;-74
2022/06/20 05:08:49;;;;;;;15.00;5.20;;;;;;;13.39;94.40;101460.38;5051543;28;20048;-74
2022/06/20 05:11:27;;;;;;;14.25;4.63;;;;;;;13.44;93.09;101461.97;5051256;28;20511;-74
2022/06/20 05:14:01;;;;;;;12.32;5.05;;;;;;;13.51;93.41;101461.84;5051833;28;20033;-74
2022/06/20 05:16:32;;;;;;;10.93;4.93;;;;;;;13.54;94.19;101469.56;5055554;28;20131;-74
2022/06/20 05:19:02;;;;;;;13.90;5.35;;;;;;;13.54;93.25;101470.41;5071590;28;20021;-81
2022/06/20 05:21:37;;;;;;;14.45;5.00;;;;;;;13.57;94.09;101472.97;5070998;28;20023;-82
2022/06/20 05:24:11;;;;;;;13.20;4.43;;;;;;;13.62;93.25;101470.22;5054790;28;20032;-82
2022/06/20 05:26:40;;;;;;;11.90;4.47;;;;;;;13.64;94.20;101465.84;5057841;28;20029;-81
2022/06/20 05:29:10;;;;;;;13.88;4.93;;;;;;;13.66;92.86;101470.09;5071058;28;20382;-82
2022/06/20 05:31:42;;;;;;;14.13;4.97;;;;;;;13.69;93.48;101480.44;5071075;28;20033;-82
2022/06/20 05:34:13;;;;;;;10.35;4.22;;;;;;;13.72;94.15;101485.56;5070934;28;20044;-82
2022/06/20 05:36:49;;;;;;;17.58;4.82;;;;;;;13.69;93.52;101472.63;5070671;28;20024;-82
2022/06/20 05:39:26;;;;;;;12.38;4.35;;;;;;;13.73;92.44;101476.00;5070811;28;20342;-82
2022/06/20 05:41:52;;;;;;;13.63;4.55;;;;;;;13.79;91.86;101470.63;5070788;28;20028;-82
2022/06/20 05:44:18;;;;;;;11.73;4.63;;;;;;;13.92;93.83;101479.00;5070564;28;20028;-82
2022/06/20 05:46:48;;;;;;;13.00;4.97;;;;;;;13.99;92.80;101470.09;5070985;28;20158;-81
2022/06/20 05:49:25;;;;;;;11.40;5.00;;;;;;;14.07;92.16;101474.19;5070134;28;20111;-82
2022/06/20 05:51:52;;;;;;;14.73;4.78;;;;;;;14.15;91.39;101467.00;5069315;28;20024;-82
2022/06/20 05:54:21;;;;;;;12.77;5.28;;;;;;;14.21;90.17;101471.19;5070438;28;20032;-82
2022/06/20 05:57:04;;;;;;;13.10;5.78;;;;;;;14.31;93.04;101466.56;5069107;28;20077;-82
2022/06/20 05:59:38;;;;;;;13.38;5.50;;;;;;;14.37;93.23;101471.59;5070403;28;20016;-83
2022/06/20 06:02:22;;;;;;;16.25;5.47;;;;;;;14.43;91.95;101476.69;5070681;28;20436;-82
2022/06/20 06:04:52;;;;;;;16.80;5.60;;;;;;;14.46;90.06;101484.44;5070292;28;20085;-82
2022/06/20 06:07:25;;;;;;;16.48;5.43;;;;;;;14.55;91.80;101489.34;5070095;28;20051;-82
2022/06/20 06:09:58;;;;;;;14.82;5.25;;;;;;;14.61;89.45;101487.41;5070460;28;20106;-83
2022/06/20 06:12:35;;;;;;;12.13;5.57;;;;;;;14.65;89.64;101493.41;5061576;28;20028;-82
2022/06/20 06:15:17;;;;;;;16.15;6.00;;;;;;;14.72;88.45;101499.28;5048809;28;20438;-82
2022/06/20 06:17:53;;;;;;;12.40;5.72;;;;;;;14.81;89.40;101497.25;5069191;28;20017;-83
2022/06/20 06:20:22;;;;;;;14.15;5.53;;;;;;;14.91;90.91;101490.84;5070125;28;20017;-83
2022/06/20 06:22:51;;;;;;;16.58;5.68;;;;;;;14.93;87.66;101488.19;5063913;28;20059;-82
2022/06/20 06:25:27;;;;;;;13.30;5.40;;;;;;;14.97;87.65;101495.88;5049724;28;20096;-82
2022/06/20 06:27:56;;;;;;;14.68;5.80;;;;;;;14.94;86.72;101490.72;5056221;28;20021;-83
2022/06/20 06:30:34;;;;;;;11.10;5.57;;;;;;;14.92;85.91;101492.56;5069809;28;20539;-83
2022/06/20 06:33:07;;;;;;;12.63;5.72;;;;;;;14.98;87.18;101496.72;5068668;28;20028;-83
2022/06/20 06:35:41;;;;;;;13.80;5.93;;;;;;;15.08;87.48;101492.09;5069309;28;20026;-83
2022/06/20 06:38:14;;;;;;;12.48;5.93;;;;;;;15.12;86.16;101491.06;5069553;28;20506;-83
2022/06/20 06:40:54;;;;;;;13.33;6.67;;;;;;;15.21;87.12;101491.66;5069341;28;20020;-83
2022/06/20 06:43:28;;;;;;;15.30;7.13;;;;;;;15.26;85.07;101487.13;5069460;28;20505;-82
2022/06/20 06:45:59;;;;;;;13.30;5.72;;;;;;;15.29;80.44;101489.59;5049507;28;20033;-83
2022/06/20 06:48:41;;;;;;;10.75;5.47;;;;;;;15.35;81.21;101496.41;5063464;28;20546;-83
2022/06/20 06:51:16;;;;;;;14.20;5.80;;;;;;;15.35;80.67;101497.25;5069369;28;20558;-83
2022/06/20 06:53:50;;;;;;;16.40;6.43;;;;;;;15.44;81.51;101501.31;5069483;28;20020;-83
2022/06/20 06:56:23;;;;;;;16.10;5.38;;;;;;;15.49;79.86;101509.03;5069221;28;20474;-82
2022/06/20 06:58:56;;;;;;;17.00;5.85;;;;;;;15.45;80.58;101523.94;5069236;28;20028;-83
2022/06/20 07:01:28;;;;;;;10.80;5.00;;;;;;;15.34;79.37;101518.22;5068540;28;20056;-83
2022/06/20 07:04:02;;;;;;;10.25;5.60;;;;;;;15.25;79.15;101524.59;5069346;28;20024;-82
2022/06/20 07:06:30;;;;;;;;;;;;;;;15.33;82.29;101524.34;5069615;28;20427;-82
2022/06/20 07:09:13;;;;;;;12.90;5.47;;;;;;;15.33;80.97;101527.81;5069135;28;20271;-82
2022/06/20 07:11:50;;;;;;;12.98;5.22;;;;;;;15.39;80.22;101532.84;5069126;28;20501;-83
2022/06/20 07:14:20;;;;;;;9.50;4.40;;;;;;;15.51;76.04;101531.56;5069358;28;20035;-83
2022/06/20 07:16:59;;;;;;;10.68;4.30;;;;;;;15.56;74.67;101534.09;5052640;28;20502;-83
2022/06/20 07:19:26;;;;;;;11.00;4.30;;;;;;;15.50;75.90;101542.91;5049226;28;20115;-83
2022/06/20 07:21:53;;;;;;;10.95;4.30;;;;;;;15.53;79.17;101547.22;5049072;28;20021;-83
2022/06/20 07:24:23;;;;;;;10.15;4.45;;;;;;;15.64;78.08;101548.56;5048961;28;20502;-82
2022/06/20 07:27:11;;;;;;;17.00;5.45;;;;;;;15.80;75.91;101539.31;5047647;28;20036;-83
2022/06/20 07:29:47;;;;;;;12.55;4.88;;;;;;;15.98;74.03;101539.56;5046059;28;20510;-83
2022/06/20 07:32:21;;;;;;;14.15;5.13;;;;;;;15.95;74.48;101548.41;5056569;28;20509;-83
2022/06/20 07:34:59;;;;;;;11.38;5.05;;;;;;;15.98;76.21;101543.06;5069050;28;20467;-83
2022/06/20 07:37:34;;;;;;;12.55;4.93;;;;;;;15.96;77.71;101547.50;5069133;28;20024;-83
2022/06/20 07:40:04;;;;;;;14.45;4.88;;;;;;;16.02;73.51;101546.44;5068951;28;20063;-83
2022/06/20 07:42:36;;;;;;;11.88;4.75;;;;;;;16.28;73.35;101543.75;5068867;28;20103;-83
2022/06/20 07:45:14;;;;;;;9.30;4.90;;;;;;;16.84;76.23;101541.66;5068898;28;20032;-84
2022/06/20 07:47:53;;;;;;;8.93;3.90;;;;;;;17.98;68.67;101538.75;5068945;28;20028;-84
2022/06/20 07:50:24;;;;;;;8.27;3.50;;;;;;;19.51;64.07;101530.78;5067455;28;20036;-83
2022/06/20 07:52:58;;;;;;;8.73;3.50;;;;;;;20.85;56.41;101532.47;5068964;28;20058;-84
2022/06/20 07:55:29;;;;;;;12.20;4.03;;;;;;;21.40;54.97;101542.56;5068731;28;20032;-84
2022/06/20 07:58:18;;;;;;;9.68;4.03;;;;;;;20.52;60.15;101543.06;5068966;28;20091;-84
2022/06/20 08:00:48;;;;;;;9.27;4.05;;;;;;;19.37;60.51;101552.47;5068471;28;20132;-84
2022/06/20 08:03:22;;;;;;;11.27;3.85;;;;;;;19.32;64.15;101564.97;5068679;28;20024;-84
2022/06/20 08:05:58;;;;;;;10.30;4.13;;;;;;;19.87;61.88;101551.72;5068761;28;20539;-84
2022/06/20 08:08:48;;;;;;;11.07;4.10;;;;;;;19.32;61.87;101559.72;5049347;28;20051;-84
2022/06/20 08:11:42;;;;;;;10.57;3.85;;;;;;;19.50;63.71;101558.00;5049423;28;20025;-84
2022/06/20 08:14:38;;;;;;;7.43;3.17;;;;;;;20.66;55.69;101560.75;5052913;28;20138;-84
2022/06/20 08:17:08;;;;;;;9.50;3.75;;;;;;;21.24;54.58;101558.41;5052434;28;20108;-84
2022/06/20 08:19:35;;;;;;;10.20;3.83;;;;;;;21.58;54.31;101558.16;5052480;28;20031;-84
2022/06/20 08:22:09;;;;;;;11.88;3.70;;;;;;;21.81;52.36;101554.19;5052393;28;20136;-85
2022/06/20 08:24:53;;;;;;;12.38;4.15;;;;;;;21.93;53.12;101556.09;5052477;28;20025;-85
2022/06/20 08:27:28;;;;;;;;;;;;;;;22.13;54.59;101556.72;5052895;28;20036;-85
2022/06/20 08:30:16;;;;;;;10.32;3.92;;;;;;;22.11;54.11;101559.44;5052556;28;19979;-85
2022/06/20 08:33:06;;;;;;;7.93;3.60;;;;;;;22.14;55.84;101571.63;5052031;28;20529;-85
2022/06/20 08:35:41;;;;;;;7.85;3.20;;;;;;;21.74;47.44;101562.56;5052076;28;20036;-85
2022/06/20 08:38:33;;;;;;;8.57;3.50;;;;;;;21.12;51.96;101570.47;5050861;28;20036;-85
2022/06/20 08:41:23;;;;;;;6.85;3.40;;;;;;;20.39;55.83;101566.56;5051888;28;20327;-85
2022/06/20 08:43:54;;;;;;;8.38;3.75;;;;;;;19.97;56.16;101580.16;5051912;28;20025;-85
2022/06/20 08:46:59;;;;;;;10.60;4.00;;;;;;;20.41;56.02;101567.31;5051944;28;20455;-85
2022/06/20 08:49:36;;;;;;;;;;;;;;;21.10;58.46;101563.56;5051003;28;20402;-85
2022/06/20 08:52:07;;;;;;;11.18;4.13;;;;;;;20.94;55.47;101568.88;5051904;28;19909;-84
2022/06/20 08:55:03;;;;;;;7.30;3.55;;;;;;;20.65;52.69;101583.63;5051782;28;20021;-84
2022/06/20 08:57:40;;;;;;;9.52;3.58;;;;;;;20.53;56.20;101589.56;5051638;28;20128;-85
2022/06/20 09:00:09;;;;;;;11.57;3.53;;;;;;;20.62;53.46;101590.81;5051840;28;20043;-85
2022/06/20 09:02:56;;;;;;;10.23;3.80;;;;;;;20.53;54.92;101596.59;5051608;28;20029;-84
2022/06/20 09:05:54;;;;;;;10.23;3.78;;;;;;;20.46;58.59;101599.56;5051657;28;20051;-85
2022/06/20 09:08:19;;;;;;;7.65;3.45;;;;;;;20.82;52.74;101590.59;5062014;28;20031;-85
2022/06/20 09:11:00;;;;;;;8.67;3.43;;;;;;;20.72;53.12;101590.25;5071685;28;20854;-85
2022/06/20 09:13:46;;;;;;;8.77;3.25;;;;;;;20.39;50.70;101590.28;5071396;28;20025;-84
2022/06/20 09:16:29;;;;;;;9.85;3.45;;;;;;;20.03;53.06;101600.91;5051388;28;20107;-84
2022/06/20 09:19:15;;;;;;;6.70;3.60;;;;;;;19.57;55.28;101610.22;5051470;28;20025;-84
2022/06/20 09:22:11;;;;;;;8.45;3.83;;;;;;;19.52;55.81;101609.59;5051653;28;20056;-85
2022/06/20 09:25:06;;;;;;;9.55;3.38;;;;;;;20.19;54.53;101602.75;5058934;28;20056;-84
2022/06/20 09:27:43;;;;;;;;;;;;;;;20.79;55.90;101606.59;5071793;28;20020;-85
2022/06/20 09:30:22;;;;;;;9.45;3.80;;;;;;;21.16;50.54;101606.28;5071203;28;20377;-85
2022/06/20 09:33:43;;;;;;;9.15;3.78;;;;;;;21.60;50.98;101600.31;5069841;28;20032;-84
2022/06/20 09:36:24;;;;;;;9.50;3.70;;;;;;;22.09;50.91;101608.03;5059856;28;20563;-85
2022/06/20 09:38:56;;;;;;;10.18;3.72;;;;;;;22.11;46.31;101608.78;5051115;28;20060;-85
2022/06/20 09:41:31;;;;;;;15.65;3.92;;;;;;;22.05;47.84;101607.34;5050912;28;20518;-85
2022/06/20 09:44:11;;;;;;;11.88;4.30;;;;;;;21.77;49.86;101609.91;5049399;28;20596;-85
2022/06/20 09:47:05;;;;;;;13.45;4.13;;;;;;;21.38;50.94;101607.72;5050835;28;20063;-85
2022/06/20 09:49:52;;;;;;;8.70;3.70;;;;;;;20.95;50.21;101606.63;5050881;28;20475;-85
2022/06/20 09:52:51;;;;;;;10.25;3.80;;;;;;;20.86;52.52;101614.09;5049312;28;20060;-84
2022/06/20 09:55:30;;;;;;;11.82;4.80;;;;;;;21.13;47.86;101598.53;5050635;28;20029;-84
2022/06/20 09:58:17;;;;;;;11.63;3.80;;;;;;;21.48;47.00;101606.28;5049399;28;20021;-86
2022/06/20 10:01:08;;;;;;;8.65;3.97;;;;;;;21.58;45.79;101608.28;5057158;28;20052;-85
2022/06/20 10:03:47;;;;;;;11.48;4.13;;;;;;;21.59;47.23;101599.44;5070934;28;20104;-85
2022/06/20 10:06:36;;;;;;;9.98;3.92;;;;;;;22.01;50.62;101606.69;5070415;28;20059;-85
2022/06/20 10:09:26;;;;;;;14.02;4.45;;;;;;;21.98;46.85;101598.94;5070473;28;20115;-85
2022/06/20 10:12:32;;;;;;;10.10;3.95;;;;;;;21.86;48.41;101610.19;5066627;28;20100;-85
2022/06/20 10:15:15;;;;;;;9.27;3.40;;;;;;;22.08;47.02;101609.81;5042552;28;20034;-84
2022/06/20 10:17:52;;;;;;;13.40;4.10;;;;;;;22.38;43.71;101610.59;5047411;28;20044;-85
2022/06/20 10:20:41;;;;;;;10.48;3.95;;;;;;;22.42;46.30;101606.84;5062104;28;20033;-85
2022/06/20 10:23:09;;;;;;;11.40;4.15;;;;;;;21.91;44.47;101617.84;5070364;28;20036;-85
2022/06/20 10:25:56;;;;;;;12.10;4.53;;;;;;;21.32;46.54;101622.13;5070012;28;20039;-84
2022/06/20 10:28:38;;;;;;;13.20;4.13;;;;;;;21.35;49.34;101618.47;5069805;28;20044;-84
2022/06/20 10:31:33;;;;;;;12.57;4.53;;;;;;;21.56;47.92;101620.72;5068528;28;20035;-85
2022/06/20 10:34:11;;;;;;;12.55;4.20;;;;;;;21.71;47.71;101615.50;5069723;28;20025;-85
2022/06/20 10:36:51;;;;;;;11.77;4.53;;;;;;;21.73;48.70;101622.41;5069561;28;20036;-85
2022/06/20 10:39:53;;;;;;;12.13;4.75;;;;;;;21.79;46.13;101632.59;5069774;28;20025;-85
2022/06/20 10:42:46;;;;;;;12.93;4.53;;;;;;;21.97;45.94;101633.38;5069287;28;20027;-84
2022/06/20 10:45:11;;;;;;;13.63;4.00;;;;;;;21.70;44.98;101630.47;5069137;28;20503;-85
2022/06/20 10:48:04;;;;;;;10.50;4.13;;;;;;;21.33;46.49;101642.28;5069419;28;20082;-85
2022/06/20 10:50:46;;;;;;;10.88;4.63;;;;;;;21.46;46.77;101634.53;5068150;28;20269;-84
2022/06/20 10:53:30;;;;;;;14.23;4.55;;;;;;;21.43;46.53;101638.19;5069431;28;20020;-85
2022/06/20 10:56:33;;;;;;;14.52;4.60;;;;;;;21.45;47.64;101635.47;5069444;28;20101;-85
2022/06/20 10:59:22;;;;;;;9.40;4.35;;;;;;;21.48;45.38;101645.84;5069588;28;20103;-85
2022/06/20 11:01:53;;;;;;;11.77;4.63;;;;;;;21.56;48.11;101651.56;5061515;28;20433;-85
2022/06/20 11:04:41;;;;;;;12.38;5.13;;;;;;;21.45;45.68;101646.88;5049110;28;20053;-84
2022/06/20 11:07:23;;;;;;;14.77;4.82;;;;;;;21.14;47.25;101650.34;5058097;28;20028;-85
2022/06/20 11:10:15;;;;;;;12.90;4.38;;;;;;;21.29;47.68;101654.78;5067755;28;20035;-84
2022/06/20 11:13:00;;;;;;;12.18;4.68;;;;;;;21.17;47.69;101644.91;5058655;28;20123;-83
2022/06/20 11:15:45;;;;;;;9.85;5.03;;;;;;;21.12;49.36;101644.28;5059955;28;20554;-85
2022/06/20 11:18:32;;;;;;;11.77;4.10;;;;;;;21.31;47.80;101653.84;5049194;28;20132;-84
2022/06/20 11:21:01;;;;;;;12.85;4.10;;;;;;;21.45;47.17;101640.75;5049027;28;20241;-85
2022/06/20 11:24:04;;;;;;;14.13;4.32;;;;;;;21.63;47.62;101651.09;5049001;28;20039;-85
2022/06/20 11:26:38;;;;;;;13.50;4.18;;;;;;;21.37;46.72;101658.78;5049011;28;20112;-85
2022/06/20 11:29:22;;;;;;;10.10;4.22;;;;;;;21.02;45.87;101645.72;5049227;28;20083;-84
2022/06/20 11:31:58;;;;;;;11.63;4.10;;;;;;;20.90;47.33;101659.56;5057227;28;20028;-85
2022/06/20 11:34:50;;;;;;;10.50;3.90;;;;;;;21.02;46.72;101642.22;5055629;28;20414;-85
2022/06/20 11:37:44;;;;;;;14.27;3.80;;;;;;;21.01;46.23;101644.03;5048973;28;20021;-84
2022/06/20 11:40:26;;;;;;;13.68;4.10;;;;;;;20.96;46.43;101638.13;5058173;28;20459;-85
2022/06/20 11:43:00;;;;;;;10.55;3.90;;;;;;;21.05;46.43;101648.19;5068622;28;20437;-85
2022/06/20 11:45:38;;;;;;;9.55;4.07;;;;;;;20.98;47.43;101644.19;5061255;28;20091;-85
2022/06/20 11:48:30;;;;;;;11.18;4.32;;;;;;;20.92;47.22;101647.16;5052866;28;20109;-85
2022/06/20 11:51:09;;;;;;;10.57;4.38;;;;;;;20.71;46.38;101646.53;5052958;28;20443;-85
2022/06/20 11:54:13;;;;;;;14.65;4.30;;;;;;;20.81;48.85;101645.09;5052936;28;20043;-85
2022/06/20 11:56:55;;;;;;;12.25;4.50;;;;;;;20.54;47.62;101640.47;5061585;28;20112;-85
2022/06/20 11:59:24;;;;;;;12.10;4.10;;;;;;;20.30;48.68;101653.91;5072483;28;20028;-85
2022/06/20 12:02:00;;;;;;;12.98;4.13;;;;;;;20.04;49.72;101655.25;5072333;28;20061;-84
2022/06/20 12:04:41;;;;;;;9.40;3.80;;;;;;;20.00;49.49;101653.69;5072684;28;20040;-85
2022/06/20 12:07:15;;;;;;;12.32;4.00;;;;;;;19.84;47.24;101650.13;5072750;28;20055;-84
2022/06/20 12:09:49;;;;;;;9.85;4.00;;;;;;;19.81;47.59;101654.66;5072946;28;20078;-75